Time;durP1;ratioP1;P1;durP2;ratioP2;P2;SDS_P1;SDS_P2;PMS_P1;PMS_P2;Temp;Humidity;BMP_temperature;BMP_pressure;BME280_temperature;BME280_humidity;BME280_pressure;Samples;Min_cycle;Max_cycle;Signal;HPM_P1;HPM_P2
2021/12/19 00:00:17;;;;;;;103.20;39.58;;;;;;;;;;5035670;28;20491;-60
2021/12/19 00:10:36;;;;;;;87.28;34.83;;;;;;;;;;5034950;28;20036;-60
2021/12/19 00:13:02;;;;;;;83.60;35.53;;;;;;;;;;5039588;28;20034;-60
2021/12/19 00:15:28;;;;;;;81.40;33.05;;;;;;;;;;5034024;28;20173;-60
2021/12/19 00:17:53;;;;;;;90.50;33.00;;;;;;;;;;5042326;28;20067;-60
2021/12/19 00:20:19;;;;;;;78.97;30.70;;;;;;;;;;5039927;28;20041;-60
2021/12/19 00:22:45;;;;;;;71.18;31.25;;;;;;;;;;5035804;28;20034;-60
2021/12/19 00:25:10;;;;;;;79.80;33.30;;;;;;;;;;5035965;28;20103;-60
2021/12/19 00:27:35;;;;;;;77.38;31.25;;;;;;;;;;5039394;28;20480;-60
2021/12/19 00:30:02;;;;;;;79.57;30.58;;;;;;;;;;5036064;28;20075;-60
2021/12/19 00:32:27;;;;;;;74.10;29.95;;;;;;;;;;5036971;28;20112;-60
2021/12/19 00:34:53;;;;;;;74.53;29.13;;;;;;;;;;5038902;28;20111;-60
2021/12/19 00:37:20;;;;;;;83.28;31.30;;;;;;;;;;5041546;28;20057;-60
2021/12/19 00:39:47;;;;;;;69.53;28.35;;;;;;;;;;5032182;28;20033;-60
2021/12/19 00:42:14;;;;;;;81.47;27.90;;;;;;;;;;5032897;28;20034;-60
2021/12/19 00:44:42;;;;;;;79.60;29.92;;;;;;;;;;5036126;28;20441;-60
2021/12/19 00:47:08;;;;;;;81.78;29.75;;;;;;;;;;5037784;28;20750;-60
2021/12/19 00:49:36;;;;;;;69.65;28.73;;;;;;;;;;5037357;28;20041;-60
2021/12/19 00:52:03;;;;;;;70.32;28.65;;;;;;;;;;5037472;28;20021;-60
2021/12/19 00:54:28;;;;;;;77.30;28.75;;;;;;;;;;5033778;28;20059;-60
2021/12/19 00:56:54;;;;;;;70.25;27.88;;;;;;;;;;5036487;28;20780;-60
2021/12/19 00:59:20;;;;;;;86.55;30.10;;;;;;;;;;5031184;28;20511;-60
2021/12/19 01:01:46;;;;;;;89.78;28.90;;;;;;;;;;5015905;28;20037;-60
2021/12/19 01:04:14;;;;;;;72.50;28.35;;;;;;;;;;5015992;28;20107;-60
2021/12/19 01:06:42;;;;;;;73.53;28.23;;;;;;;;;;5014146;28;20084;-60
2021/12/19 01:09:09;;;;;;;82.32;30.50;;;;;;;;;;5014596;28;20040;-60
2021/12/19 01:11:35;;;;;;;80.13;28.95;;;;;;;;;;5010960;28;20041;-60
2021/12/19 01:14:02;;;;;;;75.75;28.02;;;;;;;;;;5013259;28;20033;-60
2021/12/19 01:16:28;;;;;;;80.25;28.35;;;;;;;;;;5008651;28;20120;-60
2021/12/19 01:18:54;;;;;;;73.85;27.55;;;;;;;;;;5013387;28;20132;-60
2021/12/19 01:21:19;;;;;;;75.00;25.88;;;;;;;;;;5012736;28;20091;-60
2021/12/19 01:23:45;;;;;;;73.95;27.75;;;;;;;;;;5010988;28;20408;-60
2021/12/19 01:26:11;;;;;;;74.57;25.42;;;;;;;;;;5011200;28;20440;-60
2021/12/19 01:28:38;;;;;;;63.90;26.50;;;;;;;;;;5019020;28;20049;-60
2021/12/19 01:31:04;;;;;;;88.15;27.17;;;;;;;;;;5015740;28;20116;-60
2021/12/19 01:33:29;;;;;;;71.07;23.77;;;;;;;;;;5020733;28;20135;-60
2021/12/19 01:35:55;;;;;;;79.20;24.05;;;;;;;;;;5015930;28;20424;-60
2021/12/19 01:38:21;;;;;;;82.50;24.70;;;;;;;;;;5016474;28;20226;-60
2021/12/19 01:40:46;;;;;;;100.47;26.17;;;;;;;;;;5017324;28;20037;-60
2021/12/19 01:43:12;;;;;;;94.00;25.80;;;;;;;;;;5015978;28;20037;-60
2021/12/19 01:45:41;;;;;;;94.32;25.92;;;;;;;;;;5013043;28;20033;-60
2021/12/19 01:48:10;;;;;;;83.97;26.02;;;;;;;;;;5017259;28;20018;-60
2021/12/19 01:50:37;;;;;;;86.03;26.65;;;;;;;;;;5010456;28;20581;-60
2021/12/19 01:53:05;;;;;;;80.28;24.50;;;;;;;;;;5016697;28;20163;-60
2021/12/19 01:55:31;;;;;;;63.70;23.30;;;;;;;;;;5011454;28;20085;-60
2021/12/19 01:57:57;;;;;;;70.03;22.95;;;;;;;;;;5017498;28;20022;-60
2021/12/19 02:00:24;;;;;;;69.10;23.00;;;;;;;;;;5015512;28;20045;-60
2021/12/19 02:02:50;;;;;;;81.35;23.33;;;;;;;;;;5013992;28;20057;-60
2021/12/19 02:05:16;;;;;;;65.68;22.60;;;;;;;;;;5018359;28;20472;-60
2021/12/19 02:07:46;;;;;;;76.65;24.02;;;;;;;;;;5019378;28;20140;-60
2021/12/19 02:10:20;;;;;;;76.78;23.20;;;;;;;;;;5010799;28;20076;-60
2021/12/19 02:12:50;;;;;;;76.15;24.23;;;;;;;;;;5016531;28;20114;-60
2021/12/19 02:15:20;;;;;;;78.20;23.02;;;;;;;;;;5013073;28;20033;-60
2021/12/19 02:17:48;;;;;;;77.22;23.52;;;;;;;;;;5016325;28;20459;-60
2021/12/19 02:20:15;;;;;;;77.15;23.25;;;;;;;;;;5010538;28;20116;-60
2021/12/19 02:22:41;;;;;;;66.88;21.38;;;;;;;;;;5014540;28;20029;-60
2021/12/19 02:25:07;;;;;;;70.85;22.15;;;;;;;;;;5017329;28;20524;-60
2021/12/19 02:27:32;;;;;;;72.88;23.45;;;;;;;;;;5014081;28;20036;-60
2021/12/19 02:29:58;;;;;;;67.15;21.60;;;;;;;;;;5017485;28;20029;-60
2021/12/19 02:32:25;;;;;;;72.25;23.40;;;;;;;;;;5021310;28;20480;-60
2021/12/19 02:34:53;;;;;;;72.60;21.77;;;;;;;;;;5019034;28;20030;-60
2021/12/19 02:37:52;;;;;;;73.30;21.38;;;;;;;;;;5018364;28;20048;-60
2021/12/19 02:48:26;;;;;;;62.30;19.83;;;;;;;;;;5022188;28;20075;-60
2021/12/19 02:50:54;;;;;;;69.47;20.67;;;;;;;;;;5021599;28;20030;-60
2021/12/19 02:53:37;;;;;;;60.53;18.85;;;;;;;;;;5018790;28;20025;-60
2021/12/19 02:56:09;;;;;;;70.68;21.35;;;;;;;;;;5021776;28;20300;-60
2021/12/19 02:58:36;;;;;;;70.90;19.92;;;;;;;;;;5021180;28;20598;-60
2021/12/19 03:01:07;;;;;;;63.60;20.00;;;;;;;;;;5020453;28;20041;-60
2021/12/19 03:03:32;;;;;;;67.38;20.13;;;;;;;;;;5020652;28;20037;-60
2021/12/19 03:05:58;;;;;;;71.75;21.10;;;;;;;;;;5014071;28;20092;-60
2021/12/19 03:08:24;;;;;;;71.95;22.50;;;;;;;;;;5018812;28;20108;-60
2021/12/19 03:11:33;;;;;;;65.25;21.02;;;;;;;;;;5017291;28;20521;-60
2021/12/19 03:19:15;;;;;;;71.65;21.35;;;;;;;;;;5010823;28;20044;-60
2021/12/19 03:21:41;;;;;;;68.70;22.17;;;;;;;;;;5019575;28;20038;-60
2021/12/19 03:24:07;;;;;;;71.25;22.02;;;;;;;;;;5016780;28;20029;-60
2021/12/19 03:26:33;;;;;;;58.85;19.17;;;;;;;;;;5016494;28;20030;-60
2021/12/19 03:28:58;;;;;;;74.63;22.23;;;;;;;;;;5018207;28;20033;-60
2021/12/19 03:31:24;;;;;;;69.82;22.60;;;;;;;;;;5016690;28;20026;-60
2021/12/19 03:33:49;;;;;;;78.20;24.50;;;;;;;;;;5019289;28;20040;-60
2021/12/19 03:36:15;;;;;;;81.50;26.27;;;;;;;;;;5017206;28;20029;-60
2021/12/19 03:38:43;;;;;;;99.07;29.17;;;;;;;;;;5027174;28;20041;-60
2021/12/19 03:41:22;;;;;;;78.20;25.27;;;;;;;;;;5012812;28;20269;-60
2021/12/19 03:43:49;;;;;;;70.82;25.80;;;;;;;;;;5021597;28;20084;-60
2021/12/19 03:46:15;;;;;;;80.75;24.90;;;;;;;;;;5012560;28;20088;-60
2021/12/19 03:48:41;;;;;;;74.32;23.25;;;;;;;;;;5019461;28;20060;-60
2021/12/19 03:51:07;;;;;;;80.38;23.75;;;;;;;;;;5013027;28;20029;-60
2021/12/19 03:53:33;;;;;;;73.90;21.95;;;;;;;;;;5022822;28;20037;-60
2021/12/19 03:55:59;;;;;;;77.47;20.73;;;;;;;;;;5017692;28;20037;-60
2021/12/19 03:58:24;;;;;;;69.60;22.90;;;;;;;;;;5010777;28;20517;-60
2021/12/19 04:00:52;;;;;;;73.97;24.45;;;;;;;;;;5016539;28;20079;-59
2021/12/19 04:03:19;;;;;;;69.25;25.10;;;;;;;;;;5018089;28;20578;-59
2021/12/19 04:05:47;;;;;;;73.70;24.35;;;;;;;;;;5015222;28;20103;-59
2021/12/19 04:08:14;;;;;;;67.47;23.45;;;;;;;;;;5024478;28;20568;-59
2021/12/19 04:10:39;;;;;;;66.97;22.30;;;;;;;;;;5014137;28;20107;-59
2021/12/19 04:13:05;;;;;;;74.00;24.70;;;;;;;;;;5017579;28;20037;-59
2021/12/19 04:15:30;;;;;;;73.65;23.33;;;;;;;;;;5016524;28;20029;-59
2021/12/19 04:17:56;;;;;;;78.38;26.08;;;;;;;;;;5019122;28;20038;-59
2021/12/19 04:20:22;;;;;;;81.85;25.05;;;;;;;;;;5022258;28;20314;-60
2021/12/19 04:22:50;;;;;;;79.72;24.65;;;;;;;;;;5017058;28;20056;-59
2021/12/19 04:25:16;;;;;;;71.50;23.83;;;;;;;;;;5010577;28;20523;-59
2021/12/19 04:27:42;;;;;;;72.22;26.45;;;;;;;;;;5016179;28;20029;-59
2021/12/19 04:30:11;;;;;;;65.85;22.67;;;;;;;;;;5012090;28;20394;-59
2021/12/19 04:32:42;;;;;;;79.75;26.48;;;;;;;;;;5017184;28;20101;-60
2021/12/19 04:35:09;;;;;;;72.82;24.88;;;;;;;;;;5013576;28;20136;-59
2021/12/19 04:40:28;;;;;;;80.70;28.48;;;;;;;;;;5013737;28;20037;-60
2021/12/19 04:56:39;;;;;;;85.47;28.13;;;;;;;;;;5011836;28;20037;-59
2021/12/19 04:59:14;;;;;;;70.78;26.10;;;;;;;;;;5013371;28;20029;-59
2021/12/19 05:05:44;;;;;;;83.50;26.30;;;;;;;;;;5014563;28;20424;-59
2021/12/19 05:15:33;;;;;;;96.28;31.00;;;;;;;;;;5013040;28;20087;-60
2021/12/19 05:18:04;;;;;;;93.35;30.02;;;;;;;;;;5016170;28;20030;-59
2021/12/19 05:20:31;;;;;;;96.43;28.92;;;;;;;;;;5014438;28;20033;-59
2021/12/19 05:23:05;;;;;;;82.32;27.88;;;;;;;;;;5014551;28;20129;-59
2021/12/19 05:25:30;;;;;;;87.90;29.00;;;;;;;;;;5014573;28;20084;-61
2021/12/19 05:27:56;;;;;;;84.72;28.73;;;;;;;;;;5011375;28;20038;-59
2021/12/19 05:30:23;;;;;;;91.13;27.45;;;;;;;;;;5007659;28;20038;-60
2021/12/19 05:32:51;;;;;;;83.82;27.23;;;;;;;;;;5009997;28;20050;-59
2021/12/19 05:35:24;;;;;;;83.55;28.92;;;;;;;;;;5015063;28;20051;-59
2021/12/19 05:46:02;;;;;;;87.97;28.00;;;;;;;;;;5013677;28;20044;-59
2021/12/19 05:48:27;;;;;;;82.25;27.52;;;;;;;;;;5013507;28;20045;-59
2021/12/19 05:50:53;;;;;;;90.10;28.48;;;;;;;;;;5012379;28;20093;-59
2021/12/19 05:53:18;;;;;;;74.15;25.48;;;;;;;;;;5011448;28;20033;-59
2021/12/19 05:55:44;;;;;;;76.10;26.10;;;;;;;;;;5011726;28;20037;-59
2021/12/19 05:58:10;;;;;;;79.45;25.92;;;;;;;;;;5014231;28;20506;-59
2021/12/19 06:00:36;;;;;;;81.68;24.13;;;;;;;;;;5015663;28;20033;-59
2021/12/19 06:03:03;;;;;;;80.80;25.88;;;;;;;;;;5019160;28;20132;-59
2021/12/19 06:05:29;;;;;;;81.60;26.08;;;;;;;;;;5013819;28;20033;-59
2021/12/19 06:07:55;;;;;;;81.20;25.25;;;;;;;;;;5008676;28;20037;-59
2021/12/19 06:10:21;;;;;;;85.57;24.50;;;;;;;;;;5009641;28;20029;-59
2021/12/19 06:12:47;;;;;;;76.75;24.17;;;;;;;;;;5014757;28;20099;-59
2021/12/19 06:15:12;;;;;;;74.07;23.17;;;;;;;;;;5015917;28;20120;-59
2021/12/19 06:17:40;;;;;;;70.15;23.25;;;;;;;;;;5011847;28;20124;-60
2021/12/19 06:20:07;;;;;;;70.63;24.55;;;;;;;;;;5011585;28;20584;-60
2021/12/19 06:22:33;;;;;;;72.80;22.88;;;;;;;;;;5015418;28;20038;-60
2021/12/19 06:24:58;;;;;;;68.93;22.65;;;;;;;;;;5014120;28;20344;-59
2021/12/19 06:27:24;;;;;;;72.93;24.38;;;;;;;;;;5014959;28;20033;-60
2021/12/19 06:29:49;;;;;;;64.43;20.50;;;;;;;;;;5017388;28;20033;-60
2021/12/19 06:32:16;;;;;;;75.22;22.25;;;;;;;;;;5016966;28;20486;-60
2021/12/19 06:34:42;;;;;;;70.25;20.80;;;;;;;;;;5016607;28;20053;-60
2021/12/19 06:37:10;;;;;;;78.43;21.27;;;;;;;;;;5013805;28;20111;-60
2021/12/19 06:39:37;;;;;;;73.68;21.02;;;;;;;;;;5010707;28;20287;-60
2021/12/19 06:42:04;;;;;;;67.95;21.45;;;;;;;;;;5017271;28;20080;-59
2021/12/19 06:44:30;;;;;;;64.85;22.17;;;;;;;;;;5016796;28;20107;-60
2021/12/19 06:46:56;;;;;;;73.72;20.52;;;;;;;;;;5018331;28;20038;-60
2021/12/19 06:49:21;;;;;;;66.90;20.70;;;;;;;;;;5012174;28;20456;-60
2021/12/19 06:51:47;;;;;;;78.93;20.40;;;;;;;;;;5012188;28;20052;-59
2021/12/19 06:54:12;;;;;;;64.82;20.02;;;;;;;;;;5015865;28;20390;-60
2021/12/19 06:56:38;;;;;;;65.60;19.20;;;;;;;;;;5012849;28;20101;-60
2021/12/19 06:59:03;;;;;;;60.78;18.88;;;;;;;;;;5010043;28;20207;-60
2021/12/19 07:01:29;;;;;;;60.30;18.98;;;;;;;;;;5015632;28;20439;-60
2021/12/19 07:03:54;;;;;;;60.90;20.08;;;;;;;;;;5010383;28;20584;-60
2021/12/19 07:06:20;;;;;;;64.75;19.27;;;;;;;;;;5013892;28;20512;-60
2021/12/19 07:08:46;;;;;;;55.15;18.73;;;;;;;;;;5010747;28;20043;-59
2021/12/19 07:11:12;;;;;;;78.43;21.85;;;;;;;;;;5022577;28;20151;-60
2021/12/19 07:13:37;;;;;;;67.55;19.65;;;;;;;;;;5019858;28;20044;-59
2021/12/19 07:16:04;;;;;;;64.72;19.73;;;;;;;;;;5013997;28;20425;-60
2021/12/19 07:18:30;;;;;;;57.85;17.27;;;;;;;;;;5016094;28;20068;-60
2021/12/19 07:20:55;;;;;;;61.72;19.00;;;;;;;;;;5019381;28;20502;-60
2021/12/19 07:23:23;;;;;;;67.53;18.80;;;;;;;;;;5020668;28;20041;-60
2021/12/19 07:25:48;;;;;;;51.40;17.77;;;;;;;;;;5018849;28;20042;-59
2021/12/19 07:28:14;;;;;;;54.38;17.95;;;;;;;;;;5021779;28;20371;-60
2021/12/19 07:30:40;;;;;;;54.95;17.85;;;;;;;;;;5016627;28;20060;-60
2021/12/19 07:33:08;;;;;;;57.80;17.20;;;;;;;;;;5016559;28;20034;-60
2021/12/19 07:35:37;;;;;;;52.78;16.55;;;;;;;;;;5015009;28;20435;-60
2021/12/19 07:38:05;;;;;;;54.53;16.95;;;;;;;;;;5021479;28;20038;-60
2021/12/19 07:40:39;;;;;;;48.90;15.95;;;;;;;;;;5018180;28;20032;-60
2021/12/19 07:43:10;;;;;;;54.20;16.33;;;;;;;;;;5014673;28;20545;-60
2021/12/19 07:45:36;;;;;;;55.08;15.45;;;;;;;;;;5020256;28;20368;-60
2021/12/19 07:48:02;;;;;;;40.15;15.43;;;;;;;;;;5016102;28;20574;-60
2021/12/19 07:50:29;;;;;;;50.20;14.80;;;;;;;;;;5012815;28;20441;-60
2021/12/19 07:52:55;;;;;;;50.47;15.82;;;;;;;;;;5016812;28;20026;-60
2021/12/19 07:55:21;;;;;;;48.08;15.00;;;;;;;;;;5016438;28;20034;-60
2021/12/19 07:57:47;;;;;;;38.45;14.88;;;;;;;;;;5014867;28;20026;-60
2021/12/19 08:00:14;;;;;;;52.53;14.63;;;;;;;;;;5012457;28;20400;-59
2021/12/19 08:02:41;;;;;;;46.05;14.38;;;;;;;;;;5026659;28;20287;-59
2021/12/19 08:05:07;;;;;;;50.65;14.65;;;;;;;;;;5019022;28;20083;-60
2021/12/19 08:07:33;;;;;;;51.60;16.33;;;;;;;;;;5015062;28;20029;-60
2021/12/19 08:12:34;;;;;;;41.47;15.23;;;;;;;;;;5019473;28;20034;-60
2021/12/19 08:14:59;;;;;;;43.58;14.48;;;;;;;;;;5018596;28;20037;-60
2021/12/19 08:17:26;;;;;;;38.30;13.70;;;;;;;;;;5016427;28;20038;-60
2021/12/19 08:19:52;;;;;;;43.55;14.90;;;;;;;;;;5016641;28;20029;-60
2021/12/19 08:22:18;;;;;;;39.53;13.45;;;;;;;;;;5015639;28;20037;-59
2021/12/19 08:24:46;;;;;;;43.42;14.68;;;;;;;;;;5016084;28;20030;-60
2021/12/19 08:27:12;;;;;;;47.75;14.63;;;;;;;;;;5015800;28;20508;-60
2021/12/19 08:29:38;;;;;;;49.95;14.63;;;;;;;;;;5016305;28;20038;-60
2021/12/19 08:32:04;;;;;;;41.40;14.30;;;;;;;;;;5015213;28;20406;-60
2021/12/19 08:34:29;;;;;;;48.67;15.40;;;;;;;;;;5014813;28;20091;-60
2021/12/19 08:36:55;;;;;;;43.33;14.82;;;;;;;;;;5018719;28;20052;-60
2021/12/19 08:39:21;;;;;;;58.00;16.55;;;;;;;;;;5018603;28;20046;-60
2021/12/19 08:41:46;;;;;;;40.88;13.90;;;;;;;;;;5011016;28;20120;-59
2021/12/19 08:44:12;;;;;;;42.45;15.30;;;;;;;;;;5023001;28;20037;-59
2021/12/19 08:46:38;;;;;;;51.00;15.93;;;;;;;;;;5012619;28;20484;-59
2021/12/19 08:49:05;;;;;;;54.63;14.63;;;;;;;;;;5016116;28;20033;-59
2021/12/19 08:51:34;;;;;;;46.78;15.57;;;;;;;;;;5018176;28;20018;-59
2021/12/19 08:54:00;;;;;;;49.20;16.52;;;;;;;;;;5016430;28;20034;-59
2021/12/19 08:56:26;;;;;;;45.13;15.20;;;;;;;;;;5018930;28;20658;-59
2021/12/19 08:58:52;;;;;;;41.72;14.65;;;;;;;;;;5015119;28;20318;-60
2021/12/19 09:01:18;;;;;;;51.80;16.17;;;;;;;;;;5015574;28;20515;-59
2021/12/19 09:03:43;;;;;;;52.20;18.10;;;;;;;;;;5014660;28;20045;-59
2021/12/19 09:06:09;;;;;;;59.42;18.45;;;;;;;;;;5012192;28;20026;-59
2021/12/19 09:08:34;;;;;;;66.13;18.73;;;;;;;;;;5013994;28;20136;-59
2021/12/19 09:11:00;;;;;;;66.90;20.85;;;;;;;;;;5009352;28;20052;-60
2021/12/19 09:13:26;;;;;;;59.05;20.00;;;;;;;;;;5019926;28;20029;-60
2021/12/19 09:15:52;;;;;;;64.65;20.08;;;;;;;;;;5018804;28;20029;-60
2021/12/19 09:18:18;;;;;;;58.78;20.60;;;;;;;;;;5016095;28;20074;-60
2021/12/19 09:20:43;;;;;;;63.22;21.40;;;;;;;;;;5010522;28;20029;-60
2021/12/19 09:23:11;;;;;;;66.75;20.98;;;;;;;;;;5011218;28;20025;-60
2021/12/19 09:25:37;;;;;;;78.13;21.95;;;;;;;;;;5018433;28;20064;-60
2021/12/19 09:28:04;;;;;;;73.50;22.98;;;;;;;;;;5037622;28;20033;-60
2021/12/19 09:30:30;;;;;;;80.70;22.13;;;;;;;;;;5014027;28;20037;-60
2021/12/19 09:32:55;;;;;;;81.07;21.10;;;;;;;;;;5011160;28;20156;-59
2021/12/19 09:35:21;;;;;;;79.22;23.45;;;;;;;;;;5013266;28;20124;-59
2021/12/19 09:37:47;;;;;;;74.55;23.85;;;;;;;;;;5012752;28;20029;-59
2021/12/19 09:40:19;;;;;;;87.10;23.80;;;;;;;;;;5012243;28;20029;-59
2021/12/19 09:42:49;;;;;;;78.65;23.58;;;;;;;;;;5014859;28;20034;-59
2021/12/19 09:45:15;;;;;;;81.05;24.98;;;;;;;;;;5018073;28;20072;-59
2021/12/19 09:47:42;;;;;;;75.63;22.17;;;;;;;;;;5017568;28;20095;-59
2021/12/19 09:50:08;;;;;;;70.15;23.25;;;;;;;;;;5013809;28;20041;-60
2021/12/19 09:52:35;;;;;;;86.53;23.15;;;;;;;;;;5016009;28;20021;-60
2021/12/19 09:55:01;;;;;;;73.22;22.88;;;;;;;;;;5015171;28;20037;-60
2021/12/19 09:57:27;;;;;;;76.78;23.23;;;;;;;;;;5014665;28;20044;-60
2021/12/19 09:59:53;;;;;;;83.53;24.85;;;;;;;;;;5013609;28;20026;-60
2021/12/19 10:02:19;;;;;;;85.38;23.20;;;;;;;;;;5018366;28;20042;-60
2021/12/19 10:04:46;;;;;;;80.10;24.15;;;;;;;;;;5022695;28;20033;-60
2021/12/19 10:07:18;;;;;;;85.35;24.05;;;;;;;;;;5010179;28;20025;-59
2021/12/19 10:10:11;;;;;;;96.18;25.45;;;;;;;;;;5013001;28;20473;-59
2021/12/19 10:12:48;;;;;;;90.05;24.88;;;;;;;;;;5015380;28;20037;-60
2021/12/19 10:15:29;;;;;;;85.28;24.05;;;;;;;;;;5013009;28;20116;-60
2021/12/19 10:18:08;;;;;;;86.57;25.25;;;;;;;;;;5008504;28;20037;-60
2021/12/19 10:20:51;;;;;;;93.72;27.50;;;;;;;;;;5015573;28;20021;-59
2021/12/19 10:23:22;;;;;;;98.93;27.70;;;;;;;;;;5012561;28;20030;-61
2021/12/19 10:26:06;;;;;;;86.43;26.23;;;;;;;;;;5021195;28;20037;-60
2021/12/19 10:28:32;;;;;;;88.32;25.52;;;;;;;;;;5016826;28;20025;-60
2021/12/19 10:31:00;;;;;;;95.22;28.02;;;;;;;;;;5013204;28;20675;-60
2021/12/19 10:33:28;;;;;;;111.93;27.42;;;;;;;;;;5017148;28;20268;-60
2021/12/19 10:35:57;;;;;;;112.65;28.58;;;;;;;;;;5010366;28;20452;-60
2021/12/19 10:38:30;;;;;;;105.63;28.55;;;;;;;;;;5017976;28;20029;-60
2021/12/19 10:40:58;;;;;;;116.78;31.00;;;;;;;;;;5011125;28;20396;-60
2021/12/19 10:43:28;;;;;;;99.80;29.92;;;;;;;;;;5013128;28;20029;-60
2021/12/19 10:45:59;;;;;;;110.10;30.52;;;;;;;;;;5017078;28;20065;-60
2021/12/19 10:48:36;;;;;;;120.57;30.70;;;;;;;;;;5012814;28;20033;-60
2021/12/19 10:51:20;;;;;;;109.35;29.35;;;;;;;;;;5010635;28;20416;-60
2021/12/19 10:53:52;;;;;;;123.45;30.73;;;;;;;;;;5020752;28;20044;-60
2021/12/19 10:56:22;;;;;;;99.43;30.30;;;;;;;;;;5013711;28;20037;-60
2021/12/19 10:58:53;;;;;;;121.50;33.10;;;;;;;;;;5014492;28;20030;-60
2021/12/19 11:01:19;;;;;;;117.93;31.83;;;;;;;;;;5015537;28;20723;-60
2021/12/19 11:03:58;;;;;;;116.50;31.27;;;;;;;;;;5014545;28;20053;-60
2021/12/19 11:06:24;;;;;;;107.57;31.45;;;;;;;;;;5017287;28;20409;-60
2021/12/19 11:08:52;;;;;;;117.88;32.28;;;;;;;;;;5015643;28;20037;-60
2021/12/19 11:11:32;;;;;;;119.45;33.83;;;;;;;;;;5019525;28;20396;-60
2021/12/19 11:13:59;;;;;;;111.78;30.50;;;;;;;;;;5017928;28;20034;-60
2021/12/19 11:16:25;;;;;;;118.75;31.63;;;;;;;;;;5016313;28;20366;-60
2021/12/19 11:18:51;;;;;;;97.85;28.85;;;;;;;;;;5016625;28;20163;-60
2021/12/19 11:21:18;;;;;;;110.93;32.33;;;;;;;;;;5017173;28;20122;-60
2021/12/19 11:23:44;;;;;;;116.13;31.02;;;;;;;;;;5022153;28;20508;-60
2021/12/19 11:26:10;;;;;;;104.78;30.63;;;;;;;;;;5018811;28;20079;-60
2021/12/19 11:28:37;;;;;;;119.63;31.45;;;;;;;;;;5014853;28;20167;-60
2021/12/19 11:31:03;;;;;;;130.52;34.28;;;;;;;;;;5017666;28;20052;-60
2021/12/19 11:34:00;;;;;;;109.75;31.85;;;;;;;;;;5018206;28;20041;-60
2021/12/19 11:36:31;;;;;;;106.60;31.00;;;;;;;;;;5017205;28;20675;-60
2021/12/19 11:39:02;;;;;;;112.78;29.67;;;;;;;;;;5016604;28;20198;-60
2021/12/19 11:41:27;;;;;;;93.93;29.67;;;;;;;;;;5017058;28;20037;-60
2021/12/19 11:43:55;;;;;;;101.18;30.25;;;;;;;;;;5014479;28;20346;-60
2021/12/19 11:46:45;;;;;;;97.20;29.55;;;;;;;;;;5015564;28;20842;-60
2021/12/19 11:49:20;;;;;;;93.45;28.50;;;;;;;;;;5012253;28;20034;-60
2021/12/19 11:51:46;;;;;;;91.18;28.40;;;;;;;;;;5011050;28;20033;-60
2021/12/19 11:54:20;;;;;;;95.82;30.08;;;;;;;;;;5014581;28;20075;-60
2021/12/19 11:57:07;;;;;;;99.30;29.50;;;;;;;;;;5011741;28;20042;-60
2021/12/19 11:59:33;;;;;;;94.70;30.17;;;;;;;;;;5015861;28;20392;-60
2021/12/19 12:02:31;;;;;;;109.30;29.85;;;;;;;;;;5014934;28;20062;-60
2021/12/19 12:05:15;;;;;;;96.35;29.90;;;;;;;;;;4992859;28;20065;-60
2021/12/19 12:08:05;;;;;;;106.30;30.50;;;;;;;;;;5015038;28;20351;-60
2021/12/19 12:10:49;;;;;;;102.75;32.63;;;;;;;;;;5015376;28;20026;-59
2021/12/19 12:13:41;;;;;;;107.72;32.22;;;;;;;;;;5015413;28;20030;-59
2021/12/19 12:16:26;;;;;;;101.22;30.73;;;;;;;;;;5014689;28;20033;-59
2021/12/19 12:18:56;;;;;;;104.28;30.63;;;;;;;;;;5014515;28;20653;-59
2021/12/19 12:21:31;;;;;;;92.90;29.05;;;;;;;;;;5015322;28;20022;-59
2021/12/19 12:24:04;;;;;;;105.88;29.38;;;;;;;;;;5013780;28;20516;-59
2021/12/19 12:26:50;;;;;;;99.93;30.00;;;;;;;;;;5014498;28;20503;-59
2021/12/19 12:29:16;;;;;;;93.70;29.33;;;;;;;;;;5015681;28;20030;-59
2021/12/19 12:31:44;;;;;;;102.70;32.25;;;;;;;;;;5015452;28;20727;-59
2021/12/19 12:34:12;;;;;;;104.25;31.13;;;;;;;;;;5016748;28;20048;-59
2021/12/19 12:36:38;;;;;;;97.68;31.45;;;;;;;;;;5016722;28;20025;-59
2021/12/19 12:39:10;;;;;;;94.55;30.85;;;;;;;;;;5017354;28;20116;-59
2021/12/19 12:41:50;;;;;;;100.57;30.88;;;;;;;;;;5014510;28;20017;-59
2021/12/19 12:44:19;;;;;;;112.40;32.95;;;;;;;;;;5018235;28;20428;-61
2021/12/19 12:46:45;;;;;;;102.28;30.83;;;;;;;;;;5017575;28;20021;-61
2021/12/19 12:49:25;;;;;;;96.25;32.95;;;;;;;;;;5011430;28;20431;-61
2021/12/19 12:51:57;;;;;;;99.63;31.10;;;;;;;;;;5014529;28;20385;-61
2021/12/19 12:54:29;;;;;;;100.53;30.15;;;;;;;;;;5014344;28;20088;-61
2021/12/19 12:56:57;;;;;;;102.32;32.03;;;;;;;;;;5014335;28;20041;-61
2021/12/19 12:59:29;;;;;;;98.45;29.77;;;;;;;;;;5010907;28;20215;-61
2021/12/19 13:02:42;;;;;;;92.07;29.77;;;;;;;;;;5011714;28;20048;-61
2021/12/19 13:05:00;;;;;;;84.40;27.77;;;;;;;;;;5010128;28;20104;-61
2021/12/19 13:07:26;;;;;;;95.03;31.00;;;;;;;;;;5010308;28;20264;-61
2021/12/19 13:10:01;;;;;;;91.65;30.98;;;;;;;;;;5016812;28;20030;-61
2021/12/19 13:12:30;;;;;;;85.68;28.48;;;;;;;;;;5015239;28;20029;-61
2021/12/19 13:15:06;;;;;;;101.53;29.58;;;;;;;;;;5018038;28;20118;-61
2021/12/19 13:17:43;;;;;;;93.57;29.75;;;;;;;;;;5017858;28;20029;-61
2021/12/19 13:20:21;;;;;;;96.63;31.33;;;;;;;;;;5015005;28;20044;-61
2021/12/19 13:22:53;;;;;;;94.18;30.17;;;;;;;;;;5013028;28;20163;-61
2021/12/19 13:25:25;;;;;;;97.32;30.17;;;;;;;;;;5018744;28;20033;-61
2021/12/19 13:27:55;;;;;;;;;;;;;;;;;;5017017;28;20053;-61
2021/12/19 13:30:27;;;;;;;85.68;28.20;;;;;;;;;;5016664;28;20224;-61
2021/12/19 13:33:07;;;;;;;93.32;29.73;;;;;;;;;;5016620;28;20021;-61
2021/12/19 13:35:42;;;;;;;89.15;30.30;;;;;;;;;;5012798;28;20090;-61
2021/12/19 13:38:16;;;;;;;90.72;29.60;;;;;;;;;;5008865;28;20041;-61
2021/12/19 13:40:48;;;;;;;90.05;28.08;;;;;;;;;;5011149;28;20029;-61
2021/12/19 13:43:19;;;;;;;83.03;30.52;;;;;;;;;;5013434;28;20400;-61
2021/12/19 13:45:56;;;;;;;85.38;28.25;;;;;;;;;;5009359;28;20453;-61
2021/12/19 13:48:23;;;;;;;84.88;27.13;;;;;;;;;;5013443;28;20132;-61
2021/12/19 13:50:56;;;;;;;90.82;29.42;;;;;;;;;;5010235;28;20033;-61
2021/12/19 13:53:21;;;;;;;87.03;27.13;;;;;;;;;;5031308;28;20017;-61
2021/12/19 13:55:51;;;;;;;84.70;28.70;;;;;;;;;;5013278;28;20089;-61
2021/12/19 13:58:19;;;;;;;99.95;31.77;;;;;;;;;;5016746;28;20079;-61
2021/12/19 14:00:51;;;;;;;97.68;31.80;;;;;;;;;;5014111;28;20025;-61
2021/12/19 14:03:16;;;;;;;86.10;29.40;;;;;;;;;;5012694;28;20053;-61
2021/12/19 14:05:44;;;;;;;98.45;30.75;;;;;;;;;;5012510;28;20036;-61
2021/12/19 14:08:50;;;;;;;92.38;28.52;;;;;;;;;;5012273;28;20124;-61
2021/12/19 14:11:18;;;;;;;83.07;26.17;;;;;;;;;;5003661;28;20131;-61
2021/12/19 14:14:00;;;;;;;83.47;26.33;;;;;;;;;;5016976;28;20041;-61
2021/12/19 14:16:35;;;;;;;76.55;26.70;;;;;;;;;;5014059;28;20029;-61
2021/12/19 14:19:14;;;;;;;77.35;26.27;;;;;;;;;;5011899;28;20034;-61
2021/12/19 14:21:40;;;;;;;94.53;28.02;;;;;;;;;;5020108;28;20033;-61
2021/12/19 14:24:08;;;;;;;78.82;27.30;;;;;;;;;;5016807;28;20499;-61
2021/12/19 14:26:33;;;;;;;87.03;29.30;;;;;;;;;;5015651;28;20049;-61
2021/12/19 14:28:59;;;;;;;91.45;33.03;;;;;;;;;;5015836;28;20038;-61
2021/12/19 14:31:24;;;;;;;94.40;31.98;;;;;;;;;;5012266;28;20032;-61
2021/12/19 14:33:50;;;;;;;87.40;29.27;;;;;;;;;;5015801;28;20030;-61
2021/12/19 14:36:27;;;;;;;85.95;29.00;;;;;;;;;;5019694;28;20029;-61
2021/12/19 14:39:01;;;;;;;89.13;31.75;;;;;;;;;;5018200;28;20409;-61
2021/12/19 14:41:30;;;;;;;87.97;31.98;;;;;;;;;;5020354;28;20189;-61
2021/12/19 14:43:56;;;;;;;70.95;25.00;;;;;;;;;;5021000;28;20505;-61
2021/12/19 14:46:27;;;;;;;69.15;25.73;;;;;;;;;;5017869;28;20550;-61
2021/12/19 14:48:53;;;;;;;66.78;23.73;;;;;;;;;;5017372;28;20034;-61
2021/12/19 14:51:24;;;;;;;66.75;25.20;;;;;;;;;;5013156;28;20026;-61
2021/12/19 14:53:59;;;;;;;72.95;25.27;;;;;;;;;;5030991;28;20519;-61
2021/12/19 14:56:26;;;;;;;73.47;24.70;;;;;;;;;;5020252;28;20520;-61
2021/12/19 14:58:54;;;;;;;75.90;26.48;;;;;;;;;;5017143;28;20030;-61
2021/12/19 15:01:26;;;;;;;65.38;23.27;;;;;;;;;;5017549;28;20452;-60
2021/12/19 15:03:58;;;;;;;67.55;25.77;;;;;;;;;;5016668;28;20038;-61
2021/12/19 15:06:25;;;;;;;72.00;28.02;;;;;;;;;;5018569;28;20034;-59
2021/12/19 15:08:53;;;;;;;69.63;25.58;;;;;;;;;;5018562;28;20358;-60
2021/12/19 15:11:19;;;;;;;98.47;32.97;;;;;;;;;;5019625;28;20033;-61
2021/12/19 15:13:45;;;;;;;76.32;26.67;;;;;;;;;;5016610;28;20044;-61
2021/12/19 15:16:10;;;;;;;85.63;29.65;;;;;;;;;;5015132;28;20286;-61
2021/12/19 15:18:36;;;;;;;83.00;30.52;;;;;;;;;;5017323;28;20048;-60
2021/12/19 15:21:03;;;;;;;88.93;31.70;;;;;;;;;;5019831;28;20033;-59
2021/12/19 15:23:30;;;;;;;94.18;29.77;;;;;;;;;;5018666;28;20033;-59
2021/12/19 15:25:56;;;;;;;94.78;30.20;;;;;;;;;;5015132;28;20044;-59